Pine Galaxy — C6TT5 — position and weather

sailwx.info

Track history (hours):
 
Tides and Currents Weather Stations Pressure Air Temp Water Temp Dewpoint Dewpoint Depression Visibility Wind Speed Wind Dir Waves Ship Positions

Pine Galaxy

Last reported at 2017-Apr-27 19:05 UTC. Time now 2017-Apr-27 22:40 UTC.
Position N 01°18' E 104°10'.

Length 148 m; draft 7.5 m.

Type: Tanker. MMSI: 311772000.

Date/timePositionNaut miles runAvg speedWind from/ knotsBaromVisibWave heightAir tempDewpointWater temp
2017-Apr-27 19:05N 01°18' E 104°10'1 5.8
2017-Apr-27 18:55N 01°19' E 104°09'2 0.1
2017-Apr-26 23:47N 01°19' E 104°07'0 0.0
2017-Apr-26 05:03N 01°19' E 104°07'8 6.3
2017-Apr-26 03:49N 01°15' E 104°01'413.0
2017-Apr-26 03:29N 01°14' E 103°56'612.5
2017-Apr-26 03:00N 01°11' E 103°51'612.2
2017-Apr-26 02:30N 01°08' E 103°46'612.2
2017-Apr-26 02:00N 01°04' E 103°41'612.1
2017-Apr-26 01:29N 01°04' E 103°35'610.6
2017-Apr-26 00:58N 01°10' E 103°34'511.8
2017-Apr-26 00:30N 01°12' E 103°39'2 4.6
2017-Apr-26 00:00N 01°14' E 103°39'0 0.1
2017-Apr-25 23:21N 01°14' E 103°39'0 0.0
2017-Apr-25 22:54N 01°14' E 103°39'0 0.0
2017-Apr-25 22:30N 01°14' E 103°39'0 0.0
2017-Apr-25 21:57N 01°14' E 103°39'0 0.0
2017-Apr-25 21:27N 01°14' E 103°39'0 0.0
2017-Apr-25 20:57N 01°14' E 103°39'0 0.0
2017-Apr-25 20:21N 01°14' E 103°39'0 0.0
2017-Apr-25 20:00N 01°14' E 103°39'0 0.0
2017-Apr-25 19:30N 01°14' E 103°39'0 0.0
2017-Apr-25 18:57N 01°14' E 103°39'0 0.0
2017-Apr-25 18:30N 01°14' E 103°39'0 0.1
2017-Apr-25 17:57N 01°14' E 103°39'0 0.1
2017-Apr-25 17:27N 01°14' E 103°39'0 0.1
2017-Apr-25 17:00N 01°14' E 103°39'0 0.0
2017-Apr-25 16:30N 01°14' E 103°39'0 0.1
2017-Apr-25 15:57N 01°14' E 103°39'0 0.1
2017-Apr-25 15:30N 01°14' E 103°39'0 0.0
2017-Apr-25 14:54N 01°14' E 103°39'0 0.1
2017-Apr-25 14:27N 01°14' E 103°39'0 0.1
2017-Apr-25 13:30N 01°14' E 103°39'0 0.1
2017-Apr-25 12:57N 01°14' E 103°39'0 0.1
2017-Apr-25 12:27N 01°14' E 103°39'0 0.1
2017-Apr-25 12:00N 01°14' E 103°39'0 0.7
2017-Apr-25 11:30N 01°15' E 103°39'3 5.2
2017-Apr-25 11:00N 01°17' E 103°40'1 2.9
2017-Apr-25 10:30N 01°17' E 103°41'0 0.1
2017-Apr-25 10:00N 01°17' E 103°42'0 0.0
2017-Apr-25 09:28N 01°17' E 103°42'0 0.0
2017-Apr-25 08:55N 01°17' E 103°42'0 0.0
2017-Apr-25 08:22N 01°17' E 103°42'0 0.0
2017-Apr-25 07:55N 01°17' E 103°42'0 0.0
2017-Apr-25 07:22N 01°17' E 103°42'0 0.0
2017-Apr-25 06:55N 01°17' E 103°42'0 0.0
2017-Apr-25 06:28N 01°17' E 103°42'0 0.0
2017-Apr-25 05:58N 01°17' E 103°42'0 0.0
2017-Apr-25 05:28N 01°17' E 103°42'0 0.0
2017-Apr-25 04:58N 01°17' E 103°42'0 0.0
2017-Apr-25 04:25N 01°17' E 103°42'0 0.0
2017-Apr-25 03:55N 01°17' E 103°42'0 0.0
2017-Apr-25 03:25N 01°17' E 103°42'0 0.0
2017-Apr-25 02:55N 01°17' E 103°42'0 0.0
2017-Apr-25 02:25N 01°17' E 103°42'0 0.0
2017-Apr-25 01:52N 01°17' E 103°42'0 0.0
2017-Apr-25 01:22N 01°17' E 103°42'0 0.0
2017-Apr-25 00:58N 01°17' E 103°42'0 0.0
2017-Apr-25 00:28N 01°17' E 103°42'0 0.0
2017-Apr-24 23:52N 01°17' E 103°42'0 0.0
2017-Apr-24 23:28N 01°17' E 103°42'0 0.0
2017-Apr-24 22:58N 01°17' E 103°42'0 0.0
2017-Apr-24 22:25N 01°17' E 103°42'0 0.0
2017-Apr-24 20:31N 01°17' E 103°42'0 0.0
2017-Apr-24 20:01N 01°17' E 103°42'0 0.0
2017-Apr-24 19:55N 01°17' E 103°42'0 0.0
2017-Apr-24 19:25N 01°17' E 103°42'1 2.6
2017-Apr-24 19:01N 01°18' E 103°42'4 7.2
2017-Apr-24 18:31N 01°16' E 103°39'4 8.0
2017-Apr-24 18:01N 01°14' E 103°43'3 6.4
2017-Apr-24 17:30N 01°18' E 103°44'0 0.2
2017-Apr-24 17:00N 01°17' E 103°44'0 0.0
2017-Apr-24 16:29N 01°17' E 103°44'0 0.0
2017-Apr-24 15:59N 01°17' E 103°44'0 0.0
2017-Apr-24 15:29N 01°17' E 103°44'0 0.0
2017-Apr-24 14:59N 01°17' E 103°44'0 0.0
2017-Apr-24 14:29N 01°17' E 103°44'0 0.0
2017-Apr-24 13:29N 01°17' E 103°44'0 0.0
2017-Apr-24 12:59N 01°17' E 103°44'0 0.0
2017-Apr-24 12:29N 01°17' E 103°44'0 0.0
2017-Apr-24 11:59N 01°17' E 103°44'0 0.0
2017-Apr-24 11:29N 01°17' E 103°44'0 0.0
2017-Apr-24 10:59N 01°17' E 103°44'0 0.0
2017-Apr-24 10:29N 01°17' E 103°44'0 0.0
2017-Apr-24 09:59N 01°17' E 103°44'0 0.0
2017-Apr-24 09:29N 01°17' E 103°44'0 0.0
2017-Apr-24 08:59N 01°17' E 103°44'0 0.0
2017-Apr-24 08:29N 01°17' E 103°44'0 0.0
2017-Apr-24 07:59N 01°17' E 103°44'0 0.0
2017-Apr-24 07:29N 01°17' E 103°44'0 0.0
2017-Apr-24 06:59N 01°17' E 103°44'0 0.0
2017-Apr-24 06:29N 01°17' E 103°44'0 0.0
2017-Apr-24 05:59N 01°17' E 103°44'1 2.6
2017-Apr-24 05:30N 01°17' E 103°45'0 0.3
2017-Apr-24 05:00N 01°16' E 103°44'0 0.0
2017-Apr-24 04:29N 01°16' E 103°44'0 0.0
2017-Apr-24 03:56N 01°16' E 103°44'0 0.0
2017-Apr-24 03:29N 01°16' E 103°44'0 0.0
2017-Apr-24 02:56N 01°16' E 103°44'0 0.0
2017-Apr-24 02:29N 01°16' E 103°44'0 0.0
2017-Apr-24 01:53N 01°16' E 103°44'0 0.0
2017-Apr-24 01:29N 01°16' E 103°44'0 0.0
2017-Apr-24 00:56N 01°16' E 103°44'0 0.0
2017-Apr-24 00:29N 01°16' E 103°44'0 0.0
2017-Apr-23 23:53N 01°16' E 103°44'0 0.0
2017-Apr-23 23:29N 01°16' E 103°44'0 0.0
2017-Apr-23 22:56N 01°16' E 103°44'0 0.0
2017-Apr-23 22:29N 01°16' E 103°44'0 0.0
2017-Apr-23 21:56N 01°16' E 103°44'0 0.0
2017-Apr-23 21:26N 01°16' E 103°44'0 0.0
2017-Apr-23 20:56N 01°16' E 103°44'0 0.0
2017-Apr-23 20:29N 01°16' E 103°44'0 0.0
2017-Apr-23 19:56N 01°16' E 103°44'0 0.0
2017-Apr-23 19:20N 01°16' E 103°44'0 0.0
2017-Apr-23 18:53N 01°16' E 103°44'0 0.0
2017-Apr-23 18:26N 01°16' E 103°44'0 0.0
2017-Apr-23 17:56N 01°16' E 103°44'0 0.0
2017-Apr-23 17:29N 01°16' E 103°44'0 0.0
2017-Apr-23 16:56N 01°16' E 103°44'0 0.0
2017-Apr-23 16:29N 01°16' E 103°44'0 0.0
2017-Apr-23 15:56N 01°16' E 103°44'0 0.0
2017-Apr-23 15:29N 01°16' E 103°44'0 0.0
2017-Apr-23 14:56N 01°16' E 103°44'0 0.0
2017-Apr-23 13:53N 01°16' E 103°44'0 0.0
2017-Apr-23 13:29N 01°16' E 103°44'0 0.0
2017-Apr-23 12:56N 01°16' E 103°44'0 0.0
2017-Apr-23 12:29N 01°16' E 103°44'0 0.0
2017-Apr-23 11:53N 01°16' E 103°44'0 0.0
2017-Apr-23 11:29N 01°16' E 103°44'0 0.0
2017-Apr-23 10:56N 01°16' E 103°44'0 0.0
2017-Apr-23 10:29N 01°16' E 103°44'0 0.0
2017-Apr-23 09:56N 01°16' E 103°44'0 0.0
2017-Apr-23 09:29N 01°16' E 103°44'0 0.0
2017-Apr-23 08:53N 01°16' E 103°44'0 0.0
2017-Apr-23 08:29N 01°16' E 103°44'0 0.0
2017-Apr-23 07:56N 01°16' E 103°44'0 0.0
2017-Apr-23 07:29N 01°16' E 103°44'0 0.0
2017-Apr-23 06:56N 01°16' E 103°44'0 0.0
2017-Apr-23 06:26N 01°16' E 103°44'0 0.0
2017-Apr-23 05:53N 01°16' E 103°44'0 0.0
2017-Apr-23 05:29N 01°16' E 103°44'0 0.0
2017-Apr-23 04:53N 01°16' E 103°44'0 0.0
2017-Apr-23 04:29N 01°16' E 103°44'0 0.0
2017-Apr-23 03:56N 01°16' E 103°44'0 0.0
2017-Apr-23 03:29N 01°16' E 103°44'0 0.0
2017-Apr-23 02:47N 01°16' E 103°44'0 0.0
2017-Apr-23 02:26N 01°16' E 103°44'0 0.0
2017-Apr-23 01:56N 01°16' E 103°44'0 0.0
2017-Apr-23 01:29N 01°16' E 103°44'0 0.0
2017-Apr-23 00:56N 01°16' E 103°44'0 0.0
2017-Apr-23 00:29N 01°16' E 103°44'0 0.0
2017-Apr-22 23:53N 01°16' E 103°44'0 0.0
2017-Apr-22 23:29N 01°16' E 103°44'0 0.0
2017-Apr-22 22:56N 01°16' E 103°44'0 0.0
2017-Apr-22 22:29N 01°16' E 103°44'0 0.0
2017-Apr-22 21:56N 01°16' E 103°44'0 0.0
2017-Apr-22 21:29N 01°16' E 103°44'0 0.0
2017-Apr-22 20:56N 01°16' E 103°44'0 0.0
2017-Apr-22 20:29N 01°16' E 103°44'0 0.0
2017-Apr-22 19:53N 01°16' E 103°44'0 1.0
2017-Apr-22 19:30N 01°16' E 103°45'3 5.2
2017-Apr-22 19:00N 01°14' E 103°43'2 3.6
2017-Apr-22 18:30N 01°15' E 103°41'0 0.0
2017-Apr-22 18:00N 01°15' E 103°41'0 0.0
2017-Apr-22 17:30N 01°15' E 103°41'0 0.0
2017-Apr-22 16:54N 01°15' E 103°41'0 0.0
2017-Apr-22 16:27N 01°15' E 103°41'0 0.0
2017-Apr-22 15:57N 01°15' E 103°41'0 0.0
2017-Apr-22 15:24N 01°15' E 103°41'0 0.0
2017-Apr-22 14:48N 01°15' E 103°41'0 0.0
2017-Apr-22 14:21N 01°15' E 103°41'0 0.0
2017-Apr-22 13:30N 01°15' E 103°41'0 0.0
2017-Apr-22 12:54N 01°15' E 103°41'0 0.0
2017-Apr-22 12:24N 01°15' E 103°41'0 0.0
2017-Apr-22 11:54N 01°15' E 103°41'0 0.0
2017-Apr-22 11:30N 01°15' E 103°41'0 0.0
2017-Apr-22 11:00N 01°15' E 103°41'0 0.0
2017-Apr-22 10:30N 01°15' E 103°41'0 0.0
2017-Apr-22 09:54N 01°15' E 103°41'0 0.0
2017-Apr-22 09:30N 01°15' E 103°41'0 0.0
2017-Apr-22 09:00N 01°15' E 103°41'0 0.0
2017-Apr-22 08:30N 01°15' E 103°41'0 0.0
2017-Apr-22 08:00N 01°15' E 103°41'0 0.0
2017-Apr-22 07:30N 01°15' E 103°41'0 0.0
2017-Apr-22 06:57N 01°15' E 103°41'0 0.0
2017-Apr-22 06:27N 01°15' E 103°41'0 0.0
2017-Apr-22 05:57N 01°15' E 103°41'0 0.0
2017-Apr-22 05:30N 01°15' E 103°41'0 0.0
2017-Apr-22 04:57N 01°15' E 103°41'0 0.0
2017-Apr-22 04:30N 01°15' E 103°41'0 0.0
2017-Apr-22 04:00N 01°15' E 103°41'0 0.0
2017-Apr-22 03:30N 01°15' E 103°41'0 0.0
2017-Apr-22 02:57N 01°15' E 103°41'0 0.0
2017-Apr-22 02:27N 01°15' E 103°41'0 0.0
2017-Apr-22 01:57N 01°15' E 103°41'0 0.0
2017-Apr-22 01:30N 01°15' E 103°41'0 0.0
2017-Apr-22 01:00N 01°15' E 103°41'0 0.0
2017-Apr-22 00:27N 01°15' E 103°41'0 0.0
2017-Apr-22 00:00N 01°15' E 103°41'0 0.0
2017-Apr-21 23:30N 01°15' E 103°41'0 0.0
2017-Apr-21 23:00N 01°15' E 103°41'0 0.0
2017-Apr-21 22:12N 01°15' E 103°41'0 0.0
2017-Apr-21 22:00N 01°15' E 103°41'0 0.0
2017-Apr-21 21:27N 01°15' E 103°41'0 0.0
2017-Apr-21 21:00N 01°15' E 103°41'0 0.0
2017-Apr-21 20:30N 01°15' E 103°41'0 0.0
2017-Apr-21 20:00N 01°15' E 103°41'2 3.2
2017-Apr-21 19:30N 01°13' E 103°41'2 3.9
2017-Apr-21 19:00N 01°13' E 103°39'0 0.1
2017-Apr-21 18:25N 01°13' E 103°39'0 0.0
2017-Apr-21 17:58N 01°13' E 103°39'0 0.0
2017-Apr-21 17:28N 01°13' E 103°39'0 0.0
2017-Apr-21 16:52N 01°13' E 103°39'0 0.0
2017-Apr-21 16:13N 01°13' E 103°39'0 0.0
2017-Apr-21 15:49N 01°13' E 103°39'0 0.1
2017-Apr-21 15:25N 01°13' E 103°39'0 0.1
2017-Apr-21 14:55N 01°13' E 103°39'0 0.0
2017-Apr-21 14:28N 01°13' E 103°39'0 0.1
2017-Apr-21 13:10N 01°13' E 103°39'0 0.0
2017-Apr-21 12:58N 01°13' E 103°39'0 0.0
2017-Apr-21 12:25N 01°13' E 103°39'0 0.0
2017-Apr-21 11:49N 01°13' E 103°39'0 0.2
2017-Apr-21 11:28N 01°13' E 103°39'0 0.0
2017-Apr-21 10:49N 01°13' E 103°39'0 0.0
2017-Apr-21 10:22N 01°13' E 103°39'0 0.0
2017-Apr-21 09:55N 01°13' E 103°39'0 0.0
2017-Apr-21 09:19N 01°13' E 103°39'0 0.0
2017-Apr-21 08:58N 01°13' E 103°39'0 0.0
2017-Apr-21 08:22N 01°13' E 103°39'0 0.0
2017-Apr-21 07:49N 01°13' E 103°39'0 0.0
2017-Apr-21 07:16N 01°13' E 103°39'0 0.0
2017-Apr-21 06:55N 01°13' E 103°39'0 0.0
2017-Apr-21 06:28N 01°13' E 103°39'0 0.0
2017-Apr-21 05:55N 01°13' E 103°39'0 0.0
2017-Apr-21 05:28N 01°13' E 103°39'0 0.1
2017-Apr-21 04:52N 01°13' E 103°39'0 0.1
2017-Apr-21 04:30N 01°13' E 103°39'2 4.5
2017-Apr-21 04:00N 01°12' E 103°37'1 2.7
2017-Apr-21 03:30N 01°12' E 103°36'2 4.5
2017-Apr-21 03:00N 01°11' E 103°34'4 8.7
2017-Apr-21 02:30N 01°10' E 103°29'4 6.6
2017-Apr-21 01:55N 01°11' E 103°26'4 8.9
2017-Apr-21 01:28N 01°14' E 103°23'55 8.3
2017-Apr-20 18:50N 01°43' E 102°36'411.1
2017-Apr-20 18:29N 01°45' E 102°32'611.1
2017-Apr-20 17:59N 01°47' E 102°27'511.0
2017-Apr-20 17:30N 01°49' E 102°23'  
Track history (hours):
 
Tides and Currents Weather Stations Pressure Air Temp Water Temp Dewpoint Dewpoint Depression Visibility Wind Speed Wind Dir Waves Ship Positions

Pine Galaxy

Last reported at 2017-Apr-27 19:05 UTC. Time now 2017-Apr-27 22:40 UTC.
Position N 01°18' E 104°10'.

Length 148 m; draft 7.5 m.

Type: Tanker. MMSI: 311772000.

Date/timePositionNaut miles runAvg speedWind from/ knotsBaromVisibWave heightAir tempDewpointWater temp
2017-Apr-27 19:05N 01°18' E 104°10'1 5.8
2017-Apr-27 18:55N 01°19' E 104°09'2 0.1
2017-Apr-26 23:47N 01°19' E 104°07'0 0.0
2017-Apr-26 05:03N 01°19' E 104°07'8 6.3
2017-Apr-26 03:49N 01°15' E 104°01'413.0
2017-Apr-26 03:29N 01°14' E 103°56'612.5
2017-Apr-26 03:00N 01°11' E 103°51'612.2
2017-Apr-26 02:30N 01°08' E 103°46'612.2
2017-Apr-26 02:00N 01°04' E 103°41'612.1
2017-Apr-26 01:29N 01°04' E 103°35'610.6
2017-Apr-26 00:58N 01°10' E 103°34'511.8
2017-Apr-26 00:30N 01°12' E 103°39'2 4.6
2017-Apr-26 00:00N 01°14' E 103°39'0 0.1
2017-Apr-25 23:21N 01°14' E 103°39'0 0.0
2017-Apr-25 22:54N 01°14' E 103°39'0 0.0
2017-Apr-25 22:30N 01°14' E 103°39'0 0.0
2017-Apr-25 21:57N 01°14' E 103°39'0 0.0
2017-Apr-25 21:27N 01°14' E 103°39'0 0.0
2017-Apr-25 20:57N 01°14' E 103°39'0 0.0
2017-Apr-25 20:21N 01°14' E 103°39'0 0.0
2017-Apr-25 20:00N 01°14' E 103°39'0 0.0
2017-Apr-25 19:30N 01°14' E 103°39'0 0.0
2017-Apr-25 18:57N 01°14' E 103°39'0 0.0
2017-Apr-25 18:30N 01°14' E 103°39'0 0.1
2017-Apr-25 17:57N 01°14' E 103°39'0 0.1
2017-Apr-25 17:27N 01°14' E 103°39'0 0.1
2017-Apr-25 17:00N 01°14' E 103°39'0 0.0
2017-Apr-25 16:30N 01°14' E 103°39'0 0.1
2017-Apr-25 15:57N 01°14' E 103°39'0 0.1
2017-Apr-25 15:30N 01°14' E 103°39'0 0.0
2017-Apr-25 14:54N 01°14' E 103°39'0 0.1
2017-Apr-25 14:27N 01°14' E 103°39'0 0.1
2017-Apr-25 13:30N 01°14' E 103°39'0 0.1
2017-Apr-25 12:57N 01°14' E 103°39'0 0.1
2017-Apr-25 12:27N 01°14' E 103°39'0 0.1
2017-Apr-25 12:00N 01°14' E 103°39'0 0.7
2017-Apr-25 11:30N 01°15' E 103°39'3 5.2
2017-Apr-25 11:00N 01°17' E 103°40'1 2.9
2017-Apr-25 10:30N 01°17' E 103°41'0 0.1
2017-Apr-25 10:00N 01°17' E 103°42'0 0.0
2017-Apr-25 09:28N 01°17' E 103°42'0 0.0
2017-Apr-25 08:55N 01°17' E 103°42'0 0.0
2017-Apr-25 08:22N 01°17' E 103°42'0 0.0
2017-Apr-25 07:55N 01°17' E 103°42'0 0.0
2017-Apr-25 07:22N 01°17' E 103°42'0 0.0
2017-Apr-25 06:55N 01°17' E 103°42'0 0.0
2017-Apr-25 06:28N 01°17' E 103°42'0 0.0
2017-Apr-25 05:58N 01°17' E 103°42'0 0.0
2017-Apr-25 05:28N 01°17' E 103°42'0 0.0
2017-Apr-25 04:58N 01°17' E 103°42'0 0.0
2017-Apr-25 04:25N 01°17' E 103°42'0 0.0
2017-Apr-25 03:55N 01°17' E 103°42'0 0.0
2017-Apr-25 03:25N 01°17' E 103°42'0 0.0
2017-Apr-25 02:55N 01°17' E 103°42'0 0.0
2017-Apr-25 02:25N 01°17' E 103°42'0 0.0
2017-Apr-25 01:52N 01°17' E 103°42'0 0.0
2017-Apr-25 01:22N 01°17' E 103°42'0 0.0
2017-Apr-25 00:58N 01°17' E 103°42'0 0.0
2017-Apr-25 00:28N 01°17' E 103°42'0 0.0
2017-Apr-24 23:52N 01°17' E 103°42'0 0.0
2017-Apr-24 23:28N 01°17' E 103°42'0 0.0
2017-Apr-24 22:58N 01°17' E 103°42'0 0.0
2017-Apr-24 22:25N 01°17' E 103°42'0 0.0
2017-Apr-24 20:31N 01°17' E 103°42'0 0.0
2017-Apr-24 20:01N 01°17' E 103°42'0 0.0
2017-Apr-24 19:55N 01°17' E 103°42'0 0.0
2017-Apr-24 19:25N 01°17' E 103°42'1 2.6
2017-Apr-24 19:01N 01°18' E 103°42'4 7.2
2017-Apr-24 18:31N 01°16' E 103°39'4 8.0
2017-Apr-24 18:01N 01°14' E 103°43'3 6.4
2017-Apr-24 17:30N 01°18' E 103°44'0 0.2
2017-Apr-24 17:00N 01°17' E 103°44'0 0.0
2017-Apr-24 16:29N 01°17' E 103°44'0 0.0
2017-Apr-24 15:59N 01°17' E 103°44'0 0.0
2017-Apr-24 15:29N 01°17' E 103°44'0 0.0
2017-Apr-24 14:59N 01°17' E 103°44'0 0.0
2017-Apr-24 14:29N 01°17' E 103°44'0 0.0
2017-Apr-24 13:29N 01°17' E 103°44'0 0.0
2017-Apr-24 12:59N 01°17' E 103°44'0 0.0
2017-Apr-24 12:29N 01°17' E 103°44'0 0.0
2017-Apr-24 11:59N 01°17' E 103°44'0 0.0
2017-Apr-24 11:29N 01°17' E 103°44'0 0.0
2017-Apr-24 10:59N 01°17' E 103°44'0 0.0
2017-Apr-24 10:29N 01°17' E 103°44'0 0.0
2017-Apr-24 09:59N 01°17' E 103°44'0 0.0
2017-Apr-24 09:29N 01°17' E 103°44'0 0.0
2017-Apr-24 08:59N 01°17' E 103°44'0 0.0
2017-Apr-24 08:29N 01°17' E 103°44'0 0.0
2017-Apr-24 07:59N 01°17' E 103°44'0 0.0
2017-Apr-24 07:29N 01°17' E 103°44'0 0.0
2017-Apr-24 06:59N 01°17' E 103°44'0 0.0
2017-Apr-24 06:29N 01°17' E 103°44'0 0.0
2017-Apr-24 05:59N 01°17' E 103°44'1 2.6
2017-Apr-24 05:30N 01°17' E 103°45'0 0.3
2017-Apr-24 05:00N 01°16' E 103°44'0 0.0
2017-Apr-24 04:29N 01°16' E 103°44'0 0.0
2017-Apr-24 03:56N 01°16' E 103°44'0 0.0
2017-Apr-24 03:29N 01°16' E 103°44'0 0.0
2017-Apr-24 02:56N 01°16' E 103°44'0 0.0
2017-Apr-24 02:29N 01°16' E 103°44'0 0.0
2017-Apr-24 01:53N 01°16' E 103°44'0 0.0
2017-Apr-24 01:29N 01°16' E 103°44'0 0.0
2017-Apr-24 00:56N 01°16' E 103°44'0 0.0
2017-Apr-24 00:29N 01°16' E 103°44'0 0.0
2017-Apr-23 23:53N 01°16' E 103°44'0 0.0
2017-Apr-23 23:29N 01°16' E 103°44'0 0.0
2017-Apr-23 22:56N 01°16' E 103°44'0 0.0
2017-Apr-23 22:29N 01°16' E 103°44'0 0.0
2017-Apr-23 21:56N 01°16' E 103°44'0 0.0
2017-Apr-23 21:26N 01°16' E 103°44'0 0.0
2017-Apr-23 20:56N 01°16' E 103°44'0 0.0
2017-Apr-23 20:29N 01°16' E 103°44'0 0.0
2017-Apr-23 19:56N 01°16' E 103°44'0 0.0
2017-Apr-23 19:20N 01°16' E 103°44'0 0.0
2017-Apr-23 18:53N 01°16' E 103°44'0 0.0
2017-Apr-23 18:26N 01°16' E 103°44'0 0.0
2017-Apr-23 17:56N 01°16' E 103°44'0 0.0
2017-Apr-23 17:29N 01°16' E 103°44'0 0.0
2017-Apr-23 16:56N 01°16' E 103°44'0 0.0
2017-Apr-23 16:29N 01°16' E 103°44'0 0.0
2017-Apr-23 15:56N 01°16' E 103°44'0 0.0
2017-Apr-23 15:29N 01°16' E 103°44'0 0.0
2017-Apr-23 14:56N 01°16' E 103°44'0 0.0
2017-Apr-23 13:53N 01°16' E 103°44'0 0.0
2017-Apr-23 13:29N 01°16' E 103°44'0 0.0
2017-Apr-23 12:56N 01°16' E 103°44'0 0.0
2017-Apr-23 12:29N 01°16' E 103°44'0 0.0
2017-Apr-23 11:53N 01°16' E 103°44'0 0.0
2017-Apr-23 11:29N 01°16' E 103°44'0 0.0
2017-Apr-23 10:56N 01°16' E 103°44'0 0.0
2017-Apr-23 10:29N 01°16' E 103°44'0 0.0
2017-Apr-23 09:56N 01°16' E 103°44'0 0.0
2017-Apr-23 09:29N 01°16' E 103°44'0 0.0
2017-Apr-23 08:53N 01°16' E 103°44'0 0.0
2017-Apr-23 08:29N 01°16' E 103°44'0 0.0
2017-Apr-23 07:56N 01°16' E 103°44'0 0.0
2017-Apr-23 07:29N 01°16' E 103°44'0 0.0
2017-Apr-23 06:56N 01°16' E 103°44'0 0.0
2017-Apr-23 06:26N 01°16' E 103°44'0 0.0
2017-Apr-23 05:53N 01°16' E 103°44'0 0.0
2017-Apr-23 05:29N 01°16' E 103°44'0 0.0
2017-Apr-23 04:53N 01°16' E 103°44'0 0.0
2017-Apr-23 04:29N 01°16' E 103°44'0 0.0
2017-Apr-23 03:56N 01°16' E 103°44'0 0.0
2017-Apr-23 03:29N 01°16' E 103°44'0 0.0
2017-Apr-23 02:47N 01°16' E 103°44'0 0.0
2017-Apr-23 02:26N 01°16' E 103°44'0 0.0
2017-Apr-23 01:56N 01°16' E 103°44'0 0.0
2017-Apr-23 01:29N 01°16' E 103°44'0 0.0
2017-Apr-23 00:56N 01°16' E 103°44'0 0.0
2017-Apr-23 00:29N 01°16' E 103°44'0 0.0
2017-Apr-22 23:53N 01°16' E 103°44'0 0.0
2017-Apr-22 23:29N 01°16' E 103°44'0 0.0
2017-Apr-22 22:56N 01°16' E 103°44'0 0.0
2017-Apr-22 22:29N 01°16' E 103°44'0 0.0
2017-Apr-22 21:56N 01°16' E 103°44'0 0.0
2017-Apr-22 21:29N 01°16' E 103°44'0 0.0
2017-Apr-22 20:56N 01°16' E 103°44'0 0.0
2017-Apr-22 20:29N 01°16' E 103°44'0 0.0
2017-Apr-22 19:53N 01°16' E 103°44'0 1.0
2017-Apr-22 19:30N 01°16' E 103°45'3 5.2
2017-Apr-22 19:00N 01°14' E 103°43'2 3.6
2017-Apr-22 18:30N 01°15' E 103°41'0 0.0
2017-Apr-22 18:00N 01°15' E 103°41'0 0.0
2017-Apr-22 17:30N 01°15' E 103°41'0 0.0
2017-Apr-22 16:54N 01°15' E 103°41'0 0.0
2017-Apr-22 16:27N 01°15' E 103°41'0 0.0
2017-Apr-22 15:57N 01°15' E 103°41'0 0.0
2017-Apr-22 15:24N 01°15' E 103°41'0 0.0
2017-Apr-22 14:48N 01°15' E 103°41'0 0.0
2017-Apr-22 14:21N 01°15' E 103°41'0 0.0
2017-Apr-22 13:30N 01°15' E 103°41'0 0.0
2017-Apr-22 12:54N 01°15' E 103°41'0 0.0
2017-Apr-22 12:24N 01°15' E 103°41'0 0.0
2017-Apr-22 11:54N 01°15' E 103°41'0 0.0
2017-Apr-22 11:30N 01°15' E 103°41'0 0.0
2017-Apr-22 11:00N 01°15' E 103°41'0 0.0
2017-Apr-22 10:30N 01°15' E 103°41'0 0.0
2017-Apr-22 09:54N 01°15' E 103°41'0 0.0
2017-Apr-22 09:30N 01°15' E 103°41'0 0.0
2017-Apr-22 09:00N 01°15' E 103°41'0 0.0
2017-Apr-22 08:30N 01°15' E 103°41'0 0.0
2017-Apr-22 08:00N 01°15' E 103°41'0 0.0
2017-Apr-22 07:30N 01°15' E 103°41'0 0.0
2017-Apr-22 06:57N 01°15' E 103°41'0 0.0
2017-Apr-22 06:27N 01°15' E 103°41'0 0.0
2017-Apr-22 05:57N 01°15' E 103°41'0 0.0
2017-Apr-22 05:30N 01°15' E 103°41'0 0.0
2017-Apr-22 04:57N 01°15' E 103°41'0 0.0
2017-Apr-22 04:30N 01°15' E 103°41'0 0.0
2017-Apr-22 04:00N 01°15' E 103°41'0 0.0
2017-Apr-22 03:30N 01°15' E 103°41'0 0.0
2017-Apr-22 02:57N 01°15' E 103°41'0 0.0
2017-Apr-22 02:27N 01°15' E 103°41'0 0.0
2017-Apr-22 01:57N 01°15' E 103°41'0 0.0
2017-Apr-22 01:30N 01°15' E 103°41'0 0.0
2017-Apr-22 01:00N 01°15' E 103°41'0 0.0
2017-Apr-22 00:27N 01°15' E 103°41'0 0.0
2017-Apr-22 00:00N 01°15' E 103°41'0 0.0
2017-Apr-21 23:30N 01°15' E 103°41'0 0.0
2017-Apr-21 23:00N 01°15' E 103°41'0 0.0
2017-Apr-21 22:12N 01°15' E 103°41'0 0.0
2017-Apr-21 22:00N 01°15' E 103°41'0 0.0
2017-Apr-21 21:27N 01°15' E 103°41'0 0.0
2017-Apr-21 21:00N 01°15' E 103°41'0 0.0
2017-Apr-21 20:30N 01°15' E 103°41'0 0.0
2017-Apr-21 20:00N 01°15' E 103°41'2 3.2
2017-Apr-21 19:30N 01°13' E 103°41'2 3.9
2017-Apr-21 19:00N 01°13' E 103°39'0 0.1
2017-Apr-21 18:25N 01°13' E 103°39'0 0.0
2017-Apr-21 17:58N 01°13' E 103°39'0 0.0
2017-Apr-21 17:28N 01°13' E 103°39'0 0.0
2017-Apr-21 16:52N 01°13' E 103°39'0 0.0
2017-Apr-21 16:13N 01°13' E 103°39'0 0.0
2017-Apr-21 15:49N 01°13' E 103°39'0 0.1
2017-Apr-21 15:25N 01°13' E 103°39'0 0.1
2017-Apr-21 14:55N 01°13' E 103°39'0 0.0
2017-Apr-21 14:28N 01°13' E 103°39'0 0.1
2017-Apr-21 13:10N 01°13' E 103°39'0 0.0
2017-Apr-21 12:58N 01°13' E 103°39'0 0.0
2017-Apr-21 12:25N 01°13' E 103°39'0 0.0
2017-Apr-21 11:49N 01°13' E 103°39'0 0.2
2017-Apr-21 11:28N 01°13' E 103°39'0 0.0
2017-Apr-21 10:49N 01°13' E 103°39'0 0.0
2017-Apr-21 10:22N 01°13' E 103°39'0 0.0
2017-Apr-21 09:55N 01°13' E 103°39'0 0.0
2017-Apr-21 09:19N 01°13' E 103°39'0 0.0
2017-Apr-21 08:58N 01°13' E 103°39'0 0.0
2017-Apr-21 08:22N 01°13' E 103°39'0 0.0
2017-Apr-21 07:49N 01°13' E 103°39'0 0.0
2017-Apr-21 07:16N 01°13' E 103°39'0 0.0
2017-Apr-21 06:55N 01°13' E 103°39'0 0.0
2017-Apr-21 06:28N 01°13' E 103°39'0 0.0
2017-Apr-21 05:55N 01°13' E 103°39'0 0.0
2017-Apr-21 05:28N 01°13' E 103°39'0 0.1
2017-Apr-21 04:52N 01°13' E 103°39'0 0.1
2017-Apr-21 04:30N 01°13' E 103°39'2 4.5
2017-Apr-21 04:00N 01°12' E 103°37'1 2.7
2017-Apr-21 03:30N 01°12' E 103°36'2 4.5
2017-Apr-21 03:00N 01°11' E 103°34'4 8.7
2017-Apr-21 02:30N 01°10' E 103°29'4 6.6
2017-Apr-21 01:55N 01°11' E 103°26'4 8.9
2017-Apr-21 01:28N 01°14' E 103°23'55 8.3
2017-Apr-20 18:50N 01°43' E 102°36'411.1
2017-Apr-20 18:29N 01°45' E 102°32'611.1
2017-Apr-20 17:59N 01°47' E 102°27'511.0
2017-Apr-20 17:30N 01°49' E 102°23'  

Dump ship's entire track history